sensor_id;sensor_type;location;lat;lon;timestamp;P1;durP1;ratioP1;P2;durP2;ratioP2
54853;SDS011;40747;49.480;8.658;2022-12-15T00:01:43;4.32;;;3.20;;
54853;SDS011;40747;49.480;8.658;2022-12-15T00:04:27;5.68;;;3.63;;
54853;SDS011;40747;49.480;8.658;2022-12-15T00:07:11;19.90;;;6.38;;
54853;SDS011;40747;49.480;8.658;2022-12-15T00:09:55;5.70;;;3.72;;
54853;SDS011;40747;49.480;8.658;2022-12-15T00:12:39;5.20;;;4.40;;
54853;SDS011;40747;49.480;8.658;2022-12-15T00:15:23;7.65;;;5.28;;
54853;SDS011;40747;49.480;8.658;2022-12-15T00:18:07;9.52;;;5.07;;
54853;SDS011;40747;49.480;8.658;2022-12-15T00:20:51;7.68;;;5.22;;
54853;SDS011;40747;49.480;8.658;2022-12-15T00:23:35;4.60;;;4.20;;
54853;SDS011;40747;49.480;8.658;2022-12-15T00:26:19;6.63;;;3.88;;
54853;SDS011;40747;49.480;8.658;2022-12-15T00:29:02;4.85;;;3.65;;
54853;SDS011;40747;49.480;8.658;2022-12-15T00:31:46;7.72;;;5.38;;
54853;SDS011;40747;49.480;8.658;2022-12-15T00:34:30;14.38;;;6.07;;
54853;SDS011;40747;49.480;8.658;2022-12-15T00:37:14;9.73;;;6.80;;
54853;SDS011;40747;49.480;8.658;2022-12-15T00:39:58;4.47;;;3.67;;
54853;SDS011;40747;49.480;8.658;2022-12-15T00:42:28;10.60;;;7.10;;
54853;SDS011;40747;49.480;8.658;2022-12-15T00:44:54;11.07;;;5.85;;
54853;SDS011;40747;49.480;8.658;2022-12-15T00:47:20;10.05;;;5.30;;
54853;SDS011;40747;49.480;8.658;2022-12-15T00:49:46;3.47;;;3.17;;
54853;SDS011;40747;49.480;8.658;2022-12-15T00:52:30;6.20;;;4.50;;
54853;SDS011;40747;49.480;8.658;2022-12-15T00:55:14;5.35;;;4.50;;
54853;SDS011;40747;49.480;8.658;2022-12-15T00:57:58;13.32;;;6.95;;
54853;SDS011;40747;49.480;8.658;2022-12-15T01:00:42;11.38;;;6.32;;
54853;SDS011;40747;49.480;8.658;2022-12-15T01:03:26;4.78;;;3.33;;
54853;SDS011;40747;49.480;8.658;2022-12-15T01:06:11;4.32;;;3.97;;
54853;SDS011;40747;49.480;8.658;2022-12-15T01:08:57;10.07;;;5.30;;
54853;SDS011;40747;49.480;8.658;2022-12-15T01:11:41;9.20;;;5.18;;
54853;SDS011;40747;49.480;8.658;2022-12-15T01:14:25;4.97;;;4.03;;
54853;SDS011;40747;49.480;8.658;2022-12-15T01:17:09;7.57;;;6.03;;
54853;SDS011;40747;49.480;8.658;2022-12-15T01:19:53;6.63;;;4.43;;
54853;SDS011;40747;49.480;8.658;2022-12-15T01:22:57;6.05;;;5.38;;
54853;SDS011;40747;49.480;8.658;2022-12-15T01:25:23;5.25;;;4.47;;
54853;SDS011;40747;49.480;8.658;2022-12-15T01:27:49;5.47;;;4.50;;
54853;SDS011;40747;49.480;8.658;2022-12-15T01:30:16;8.85;;;5.45;;
54853;SDS011;40747;49.480;8.658;2022-12-15T01:32:44;5.15;;;4.18;;
54853;SDS011;40747;49.480;8.658;2022-12-15T01:35:09;6.03;;;4.72;;
54853;SDS011;40747;49.480;8.658;2022-12-15T01:37:35;7.15;;;5.15;;
54853;SDS011;40747;49.480;8.658;2022-12-15T01:40:01;4.60;;;3.90;;
54853;SDS011;40747;49.480;8.658;2022-12-15T01:42:45;6.03;;;4.45;;
54853;SDS011;40747;49.480;8.658;2022-12-15T01:47:48;6.63;;;4.82;;
54853;SDS011;40747;49.480;8.658;2022-12-15T01:50:26;5.32;;;3.75;;
54853;SDS011;40747;49.480;8.658;2022-12-15T01:52:53;5.70;;;4.80;;
54853;SDS011;40747;49.480;8.658;2022-12-15T01:55:19;6.22;;;5.72;;
54853;SDS011;40747;49.480;8.658;2022-12-15T01:57:51;6.47;;;4.57;;
54853;SDS011;40747;49.480;8.658;2022-12-15T02:00:19;4.80;;;4.38;;
54853;SDS011;40747;49.480;8.658;2022-12-15T02:02:45;5.20;;;3.63;;
54853;SDS011;40747;49.480;8.658;2022-12-15T02:05:10;9.48;;;6.18;;
54853;SDS011;40747;49.480;8.658;2022-12-15T02:07:35;8.98;;;4.63;;
54853;SDS011;40747;49.480;8.658;2022-12-15T02:10:03;11.20;;;6.80;;
54853;SDS011;40747;49.480;8.658;2022-12-15T02:15:28;5.60;;;4.47;;
54853;SDS011;40747;49.480;8.658;2022-12-15T02:20:53;7.32;;;5.47;;
54853;SDS011;40747;49.480;8.658;2022-12-15T02:26:18;4.20;;;3.83;;
54853;SDS011;40747;49.480;8.658;2022-12-15T02:32:02;8.23;;;3.65;;
54853;SDS011;40747;49.480;8.658;2022-12-15T02:34:37;8.90;;;5.95;;
54853;SDS011;40747;49.480;8.658;2022-12-15T02:37:16;5.53;;;3.92;;
54853;SDS011;40747;49.480;8.658;2022-12-15T02:39:46;6.97;;;4.10;;
54853;SDS011;40747;49.480;8.658;2022-12-15T02:42:12;10.10;;;4.82;;
54853;SDS011;40747;49.480;8.658;2022-12-15T02:44:46;6.32;;;4.85;;
54853;SDS011;40747;49.480;8.658;2022-12-15T02:47:21;4.05;;;3.65;;
54853;SDS011;40747;49.480;8.658;2022-12-15T02:53:02;7.40;;;3.65;;
54853;SDS011;40747;49.480;8.658;2022-12-15T02:55:50;9.90;;;4.55;;
54853;SDS011;40747;49.480;8.658;2022-12-15T02:58:26;5.15;;;4.72;;
54853;SDS011;40747;49.480;8.658;2022-12-15T03:00:57;8.88;;;6.13;;
54853;SDS011;40747;49.480;8.658;2022-12-15T03:03:35;8.82;;;5.85;;
54853;SDS011;40747;49.480;8.658;2022-12-15T03:06:02;6.03;;;4.63;;
54853;SDS011;40747;49.480;8.658;2022-12-15T03:08:28;8.20;;;4.18;;
54853;SDS011;40747;49.480;8.658;2022-12-15T03:10:53;4.00;;;3.17;;
54853;SDS011;40747;49.480;8.658;2022-12-15T03:13:21;15.43;;;6.68;;
54853;SDS011;40747;49.480;8.658;2022-12-15T03:15:47;8.00;;;4.20;;
54853;SDS011;40747;49.480;8.658;2022-12-15T03:18:12;9.60;;;4.50;;
54853;SDS011;40747;49.480;8.658;2022-12-15T03:20:37;8.82;;;4.47;;
54853;SDS011;40747;49.480;8.658;2022-12-15T03:23:02;8.18;;;5.85;;
54853;SDS011;40747;49.480;8.658;2022-12-15T03:25:28;8.20;;;4.45;;
54853;SDS011;40747;49.480;8.658;2022-12-15T03:27:53;6.78;;;4.55;;
54853;SDS011;40747;49.480;8.658;2022-12-15T03:30:19;8.25;;;4.65;;
54853;SDS011;40747;49.480;8.658;2022-12-15T03:32:44;5.00;;;4.45;;
54853;SDS011;40747;49.480;8.658;2022-12-15T03:35:10;7.05;;;4.65;;
54853;SDS011;40747;49.480;8.658;2022-12-15T03:37:36;4.78;;;4.22;;
54853;SDS011;40747;49.480;8.658;2022-12-15T03:40:02;4.63;;;4.22;;
54853;SDS011;40747;49.480;8.658;2022-12-15T03:42:27;7.57;;;6.47;;
54853;SDS011;40747;49.480;8.658;2022-12-15T03:47:39;4.13;;;3.72;;
54853;SDS011;40747;49.480;8.658;2022-12-15T03:50:05;6.05;;;4.45;;
54853;SDS011;40747;49.480;8.658;2022-12-15T03:52:31;10.30;;;7.03;;
54853;SDS011;40747;49.480;8.658;2022-12-15T03:54:56;8.00;;;6.30;;
54853;SDS011;40747;49.480;8.658;2022-12-15T03:57:22;6.63;;;5.88;;
54853;SDS011;40747;49.480;8.658;2022-12-15T03:59:47;7.20;;;6.15;;
54853;SDS011;40747;49.480;8.658;2022-12-15T04:02:12;6.70;;;5.85;;
54853;SDS011;40747;49.480;8.658;2022-12-15T04:04:38;10.27;;;5.40;;
54853;SDS011;40747;49.480;8.658;2022-12-15T04:07:03;5.03;;;3.90;;
54853;SDS011;40747;49.480;8.658;2022-12-15T04:09:28;10.50;;;6.97;;
54853;SDS011;40747;49.480;8.658;2022-12-15T04:11:53;7.28;;;5.28;;
54853;SDS011;40747;49.480;8.658;2022-12-15T04:14:19;8.27;;;5.25;;
54853;SDS011;40747;49.480;8.658;2022-12-15T04:16:44;5.00;;;4.53;;
54853;SDS011;40747;49.480;8.658;2022-12-15T04:19:09;14.05;;;7.28;;
54853;SDS011;40747;49.480;8.658;2022-12-15T04:21:53;6.90;;;4.60;;
54853;SDS011;40747;49.480;8.658;2022-12-15T04:24:18;5.20;;;4.43;;
54853;SDS011;40747;49.480;8.658;2022-12-15T04:27:02;16.58;;;4.32;;
54853;SDS011;40747;49.480;8.658;2022-12-15T04:29:46;6.45;;;3.53;;
54853;SDS011;40747;49.480;8.658;2022-12-15T04:32:30;5.78;;;4.07;;
54853;SDS011;40747;49.480;8.658;2022-12-15T04:35:14;3.55;;;3.22;;
54853;SDS011;40747;49.480;8.658;2022-12-15T04:37:58;5.78;;;3.13;;
54853;SDS011;40747;49.480;8.658;2022-12-15T04:40:42;4.55;;;3.75;;
54853;SDS011;40747;49.480;8.658;2022-12-15T04:43:25;4.82;;;4.38;;
54853;SDS011;40747;49.480;8.658;2022-12-15T04:46:09;4.50;;;3.60;;
54853;SDS011;40747;49.480;8.658;2022-12-15T04:48:53;3.38;;;2.97;;
54853;SDS011;40747;49.480;8.658;2022-12-15T04:51:37;9.38;;;3.72;;
54853;SDS011;40747;49.480;8.658;2022-12-15T04:54:21;8.90;;;5.55;;
54853;SDS011;40747;49.480;8.658;2022-12-15T04:57:05;10.95;;;4.03;;
54853;SDS011;40747;49.480;8.658;2022-12-15T04:59:49;3.63;;;2.88;;
54853;SDS011;40747;49.480;8.658;2022-12-15T05:02:33;8.85;;;4.03;;
54853;SDS011;40747;49.480;8.658;2022-12-15T05:05:17;7.45;;;6.38;;
54853;SDS011;40747;49.480;8.658;2022-12-15T05:08:01;5.32;;;4.35;;
54853;SDS011;40747;49.480;8.658;2022-12-15T05:10:44;3.95;;;3.67;;
54853;SDS011;40747;49.480;8.658;2022-12-15T05:13:28;6.32;;;3.80;;
54853;SDS011;40747;49.480;8.658;2022-12-15T05:16:12;5.30;;;4.70;;
54853;SDS011;40747;49.480;8.658;2022-12-15T05:18:56;3.78;;;3.17;;
54853;SDS011;40747;49.480;8.658;2022-12-15T05:21:40;5.72;;;5.05;;
54853;SDS011;40747;49.480;8.658;2022-12-15T05:24:24;12.90;;;6.60;;
54853;SDS011;40747;49.480;8.658;2022-12-15T05:27:08;8.02;;;5.45;;
54853;SDS011;40747;49.480;8.658;2022-12-15T05:29:52;4.82;;;3.72;;
54853;SDS011;40747;49.480;8.658;2022-12-15T05:32:36;10.63;;;7.70;;
54853;SDS011;40747;49.480;8.658;2022-12-15T05:35:02;12.32;;;7.72;;
54853;SDS011;40747;49.480;8.658;2022-12-15T05:37:27;7.30;;;4.40;;
54853;SDS011;40747;49.480;8.658;2022-12-15T05:39:52;23.73;;;11.68;;
54853;SDS011;40747;49.480;8.658;2022-12-15T05:42:18;33.10;;;13.80;;
54853;SDS011;40747;49.480;8.658;2022-12-15T05:44:43;22.15;;;12.85;;
54853;SDS011;40747;49.480;8.658;2022-12-15T05:47:09;28.52;;;13.77;;
54853;SDS011;40747;49.480;8.658;2022-12-15T05:49:35;12.48;;;7.07;;
54853;SDS011;40747;49.480;8.658;2022-12-15T05:52:01;9.88;;;7.13;;
54853;SDS011;40747;49.480;8.658;2022-12-15T05:54:26;31.88;;;13.00;;
54853;SDS011;40747;49.480;8.658;2022-12-15T05:56:51;32.90;;;14.18;;
54853;SDS011;40747;49.480;8.658;2022-12-15T05:59:17;26.05;;;12.60;;
54853;SDS011;40747;49.480;8.658;2022-12-15T06:01:43;31.67;;;14.65;;
54853;SDS011;40747;49.480;8.658;2022-12-15T06:04:08;26.38;;;12.40;;
54853;SDS011;40747;49.480;8.658;2022-12-15T06:06:36;29.10;;;13.40;;
54853;SDS011;40747;49.480;8.658;2022-12-15T06:09:02;34.65;;;14.73;;
54853;SDS011;40747;49.480;8.658;2022-12-15T06:11:28;12.88;;;7.25;;
54853;SDS011;40747;49.480;8.658;2022-12-15T06:13:53;7.15;;;5.85;;
54853;SDS011;40747;49.480;8.658;2022-12-15T06:16:19;6.35;;;5.55;;
54853;SDS011;40747;49.480;8.658;2022-12-15T06:18:48;19.23;;;10.07;;
54853;SDS011;40747;49.480;8.658;2022-12-15T06:21:17;15.63;;;8.15;;
54853;SDS011;40747;49.480;8.658;2022-12-15T06:23:45;6.63;;;5.57;;
54853;SDS011;40747;49.480;8.658;2022-12-15T06:26:12;13.80;;;8.15;;
54853;SDS011;40747;49.480;8.658;2022-12-15T06:28:39;12.13;;;5.65;;
54853;SDS011;40747;49.480;8.658;2022-12-15T06:31:06;11.20;;;5.18;;
54853;SDS011;40747;49.480;8.658;2022-12-15T06:33:33;9.10;;;5.18;;
54853;SDS011;40747;49.480;8.658;2022-12-15T06:36:03;6.55;;;4.65;;
54853;SDS011;40747;49.480;8.658;2022-12-15T06:38:31;19.50;;;8.80;;
54853;SDS011;40747;49.480;8.658;2022-12-15T06:40:57;10.35;;;6.40;;
54853;SDS011;40747;49.480;8.658;2022-12-15T06:43:24;6.43;;;5.80;;
54853;SDS011;40747;49.480;8.658;2022-12-15T06:45:50;3.45;;;3.08;;
54853;SDS011;40747;49.480;8.658;2022-12-15T06:48:16;4.15;;;2.25;;
54853;SDS011;40747;49.480;8.658;2022-12-15T06:50:42;5.95;;;1.95;;
54853;SDS011;40747;49.480;8.658;2022-12-15T06:53:09;7.43;;;4.32;;
54853;SDS011;40747;49.480;8.658;2022-12-15T06:55:34;5.30;;;4.00;;
54853;SDS011;40747;49.480;8.658;2022-12-15T06:58:00;25.75;;;12.68;;
54853;SDS011;40747;49.480;8.658;2022-12-15T07:00:25;28.58;;;14.23;;
54853;SDS011;40747;49.480;8.658;2022-12-15T07:02:51;33.53;;;14.30;;
54853;SDS011;40747;49.480;8.658;2022-12-15T07:05:17;23.05;;;12.05;;
54853;SDS011;40747;49.480;8.658;2022-12-15T07:07:42;25.08;;;11.75;;
54853;SDS011;40747;49.480;8.658;2022-12-15T07:10:08;22.65;;;11.98;;
54853;SDS011;40747;49.480;8.658;2022-12-15T07:12:34;19.67;;;10.07;;
54853;SDS011;40747;49.480;8.658;2022-12-15T07:15:00;32.35;;;13.45;;
54853;SDS011;40747;49.480;8.658;2022-12-15T07:17:25;33.10;;;13.73;;
54853;SDS011;40747;49.480;8.658;2022-12-15T07:19:50;35.95;;;16.65;;
54853;SDS011;40747;49.480;8.658;2022-12-15T07:22:16;29.40;;;12.68;;
54853;SDS011;40747;49.480;8.658;2022-12-15T07:24:41;33.10;;;15.63;;
54853;SDS011;40747;49.480;8.658;2022-12-15T07:27:06;29.00;;;13.55;;
54853;SDS011;40747;49.480;8.658;2022-12-15T07:29:31;31.27;;;13.48;;
54853;SDS011;40747;49.480;8.658;2022-12-15T07:31:57;32.72;;;15.27;;
54853;SDS011;40747;49.480;8.658;2022-12-15T07:34:24;19.10;;;8.98;;
54853;SDS011;40747;49.480;8.658;2022-12-15T07:36:49;28.98;;;12.80;;
54853;SDS011;40747;49.480;8.658;2022-12-15T07:39:15;29.38;;;12.68;;
54853;SDS011;40747;49.480;8.658;2022-12-15T07:41:40;22.48;;;11.98;;
54853;SDS011;40747;49.480;8.658;2022-12-15T07:44:05;30.35;;;12.80;;
54853;SDS011;40747;49.480;8.658;2022-12-15T07:46:31;25.10;;;10.50;;
54853;SDS011;40747;49.480;8.658;2022-12-15T07:48:57;33.75;;;14.88;;
54853;SDS011;40747;49.480;8.658;2022-12-15T07:51:22;12.70;;;7.05;;
54853;SDS011;40747;49.480;8.658;2022-12-15T07:53:48;29.65;;;13.40;;
54853;SDS011;40747;49.480;8.658;2022-12-15T07:56:14;33.92;;;15.80;;
54853;SDS011;40747;49.480;8.658;2022-12-15T07:58:40;30.38;;;13.55;;
54853;SDS011;40747;49.480;8.658;2022-12-15T08:01:06;33.50;;;14.50;;
54853;SDS011;40747;49.480;8.658;2022-12-15T08:03:33;26.70;;;12.90;;
54853;SDS011;40747;49.480;8.658;2022-12-15T08:06:03;25.30;;;11.85;;
54853;SDS011;40747;49.480;8.658;2022-12-15T08:08:32;14.88;;;7.75;;
54853;SDS011;40747;49.480;8.658;2022-12-15T08:10:58;20.13;;;9.90;;
54853;SDS011;40747;49.480;8.658;2022-12-15T08:13:23;21.67;;;10.40;;
54853;SDS011;40747;49.480;8.658;2022-12-15T08:15:52;28.23;;;13.20;;
54853;SDS011;40747;49.480;8.658;2022-12-15T08:18:18;23.75;;;10.95;;
54853;SDS011;40747;49.480;8.658;2022-12-15T08:20:44;30.70;;;14.10;;
54853;SDS011;40747;49.480;8.658;2022-12-15T08:23:09;22.02;;;11.15;;
54853;SDS011;40747;49.480;8.658;2022-12-15T08:25:34;32.10;;;15.05;;
54853;SDS011;40747;49.480;8.658;2022-12-15T08:28:00;24.70;;;13.15;;
54853;SDS011;40747;49.480;8.658;2022-12-15T08:30:25;29.33;;;15.15;;
54853;SDS011;40747;49.480;8.658;2022-12-15T08:32:50;22.73;;;10.70;;
54853;SDS011;40747;49.480;8.658;2022-12-15T08:35:16;28.40;;;12.32;;
54853;SDS011;40747;49.480;8.658;2022-12-15T08:37:41;24.23;;;11.13;;
54853;SDS011;40747;49.480;8.658;2022-12-15T08:40:07;21.00;;;10.50;;
54853;SDS011;40747;49.480;8.658;2022-12-15T08:42:33;21.85;;;8.48;;
54853;SDS011;40747;49.480;8.658;2022-12-15T08:44:59;15.40;;;9.52;;
54853;SDS011;40747;49.480;8.658;2022-12-15T08:47:24;24.50;;;11.48;;
54853;SDS011;40747;49.480;8.658;2022-12-15T08:49:49;31.52;;;15.45;;
54853;SDS011;40747;49.480;8.658;2022-12-15T08:52:16;8.20;;;5.60;;
54853;SDS011;40747;49.480;8.658;2022-12-15T08:54:42;19.17;;;9.90;;
54853;SDS011;40747;49.480;8.658;2022-12-15T08:57:07;10.10;;;7.25;;
54853;SDS011;40747;49.480;8.658;2022-12-15T08:59:32;10.57;;;4.63;;
54853;SDS011;40747;49.480;8.658;2022-12-15T09:01:58;17.33;;;10.13;;
54853;SDS011;40747;49.480;8.658;2022-12-15T09:04:23;15.90;;;9.82;;
54853;SDS011;40747;49.480;8.658;2022-12-15T09:06:48;7.10;;;4.78;;
54853;SDS011;40747;49.480;8.658;2022-12-15T09:09:13;9.60;;;5.63;;
54853;SDS011;40747;49.480;8.658;2022-12-15T09:11:39;9.60;;;4.55;;
54853;SDS011;40747;49.480;8.658;2022-12-15T09:14:05;9.15;;;5.75;;
54853;SDS011;40747;49.480;8.658;2022-12-15T09:16:30;27.02;;;13.20;;
54853;SDS011;40747;49.480;8.658;2022-12-15T09:18:56;31.15;;;17.13;;
54853;SDS011;40747;49.480;8.658;2022-12-15T09:21:24;24.55;;;12.95;;
54853;SDS011;40747;49.480;8.658;2022-12-15T09:23:53;36.30;;;17.08;;
54853;SDS011;40747;49.480;8.658;2022-12-15T09:26:22;35.00;;;17.50;;
54853;SDS011;40747;49.480;8.658;2022-12-15T09:28:48;34.00;;;17.35;;
54853;SDS011;40747;49.480;8.658;2022-12-15T09:31:23;34.45;;;16.67;;
54853;SDS011;40747;49.480;8.658;2022-12-15T09:33:52;29.63;;;14.68;;
54853;SDS011;40747;49.480;8.658;2022-12-15T09:36:19;24.08;;;12.48;;
54853;SDS011;40747;49.480;8.658;2022-12-15T09:38:45;24.20;;;10.93;;
54853;SDS011;40747;49.480;8.658;2022-12-15T09:43:47;25.40;;;8.52;;
54853;SDS011;40747;49.480;8.658;2022-12-15T09:46:28;16.10;;;7.57;;
54853;SDS011;40747;49.480;8.658;2022-12-15T09:49:02;29.98;;;14.20;;
54853;SDS011;40747;49.480;8.658;2022-12-15T09:51:43;23.60;;;13.13;;
54853;SDS011;40747;49.480;8.658;2022-12-15T09:54:14;32.15;;;15.35;;
54853;SDS011;40747;49.480;8.658;2022-12-15T09:56:41;15.20;;;9.30;;
54853;SDS011;40747;49.480;8.658;2022-12-15T09:59:15;16.58;;;10.02;;
54853;SDS011;40747;49.480;8.658;2022-12-15T10:01:59;29.50;;;13.48;;
54853;SDS011;40747;49.480;8.658;2022-12-15T10:04:40;36.25;;;17.63;;
54853;SDS011;40747;49.480;8.658;2022-12-15T10:07:18;9.30;;;4.75;;
54853;SDS011;40747;49.480;8.658;2022-12-15T10:09:51;24.15;;;12.65;;
54853;SDS011;40747;49.480;8.658;2022-12-15T10:12:19;14.07;;;7.00;;
54853;SDS011;40747;49.480;8.658;2022-12-15T10:14:55;27.45;;;12.35;;
54853;SDS011;40747;49.480;8.658;2022-12-15T10:20:21;21.92;;;12.52;;
54853;SDS011;40747;49.480;8.658;2022-12-15T10:22:50;23.95;;;12.75;;
54853;SDS011;40747;49.480;8.658;2022-12-15T10:25:26;22.25;;;7.05;;
54853;SDS011;40747;49.480;8.658;2022-12-15T10:30:30;27.80;;;11.80;;
54853;SDS011;40747;49.480;8.658;2022-12-15T10:33:00;17.13;;;9.48;;
54853;SDS011;40747;49.480;8.658;2022-12-15T10:35:28;14.73;;;10.07;;
54853;SDS011;40747;49.480;8.658;2022-12-15T10:37:58;26.23;;;14.35;;
54853;SDS011;40747;49.480;8.658;2022-12-15T10:40:46;15.70;;;8.25;;
54853;SDS011;40747;49.480;8.658;2022-12-15T10:43:25;10.48;;;6.43;;
54853;SDS011;40747;49.480;8.658;2022-12-15T10:46:00;20.02;;;10.60;;
54853;SDS011;40747;49.480;8.658;2022-12-15T10:48:35;12.30;;;7.10;;
54853;SDS011;40747;49.480;8.658;2022-12-15T10:56:34;11.45;;;8.00;;
54853;SDS011;40747;49.480;8.658;2022-12-15T10:59:36;26.48;;;12.77;;
54853;SDS011;40747;49.480;8.658;2022-12-15T11:07:41;20.88;;;12.15;;
54853;SDS011;40747;49.480;8.658;2022-12-15T11:10:13;19.30;;;10.05;;
54853;SDS011;40747;49.480;8.658;2022-12-15T11:12:40;21.27;;;11.88;;
54853;SDS011;40747;49.480;8.658;2022-12-15T11:17:49;24.17;;;14.77;;
54853;SDS011;40747;49.480;8.658;2022-12-15T11:20:19;21.60;;;11.45;;
54853;SDS011;40747;49.480;8.658;2022-12-15T11:23:04;34.43;;;17.20;;
54853;SDS011;40747;49.480;8.658;2022-12-15T11:25:54;22.65;;;11.60;;
54853;SDS011;40747;49.480;8.658;2022-12-15T11:28:27;26.50;;;15.13;;
54853;SDS011;40747;49.480;8.658;2022-12-15T11:31:00;38.92;;;18.35;;
54853;SDS011;40747;49.480;8.658;2022-12-15T11:40:55;22.92;;;11.73;;
54853;SDS011;40747;49.480;8.658;2022-12-15T11:52:01;37.78;;;17.00;;
54853;SDS011;40747;49.480;8.658;2022-12-15T12:07:51;29.42;;;13.32;;
54853;SDS011;40747;49.480;8.658;2022-12-15T12:21:26;21.27;;;10.68;;
54853;SDS011;40747;49.480;8.658;2022-12-15T12:24:20;29.27;;;13.25;;
54853;SDS011;40747;49.480;8.658;2022-12-15T12:27:27;19.70;;;10.38;;
54853;SDS011;40747;49.480;8.658;2022-12-15T12:30:16;21.17;;;9.85;;
54853;SDS011;40747;49.480;8.658;2022-12-15T12:35:29;22.95;;;11.30;;
54853;SDS011;40747;49.480;8.658;2022-12-15T12:38:03;16.33;;;8.63;;
54853;SDS011;40747;49.480;8.658;2022-12-15T12:43:08;30.20;;;15.02;;
54853;SDS011;40747;49.480;8.658;2022-12-15T12:45:41;18.85;;;9.32;;
54853;SDS011;40747;49.480;8.658;2022-12-15T12:48:14;8.20;;;6.00;;
54853;SDS011;40747;49.480;8.658;2022-12-15T12:50:47;26.60;;;11.35;;
54853;SDS011;40747;49.480;8.658;2022-12-15T12:53:32;43.30;;;20.35;;
54853;SDS011;40747;49.480;8.658;2022-12-15T12:55:58;30.15;;;14.52;;
54853;SDS011;40747;49.480;8.658;2022-12-15T13:01:15;38.38;;;16.17;;
54853;SDS011;40747;49.480;8.658;2022-12-15T13:03:43;43.55;;;19.20;;
54853;SDS011;40747;49.480;8.658;2022-12-15T13:09:19;42.97;;;19.30;;
54853;SDS011;40747;49.480;8.658;2022-12-15T13:14:13;54.20;;;22.80;;
54853;SDS011;40747;49.480;8.658;2022-12-15T13:16:41;44.83;;;19.00;;
54853;SDS011;40747;49.480;8.658;2022-12-15T13:19:09;28.00;;;13.45;;
54853;SDS011;40747;49.480;8.658;2022-12-15T13:24:17;45.75;;;20.63;;
54853;SDS011;40747;49.480;8.658;2022-12-15T13:26:51;36.80;;;17.60;;
54853;SDS011;40747;49.480;8.658;2022-12-15T13:29:26;50.17;;;20.77;;
54853;SDS011;40747;49.480;8.658;2022-12-15T13:31:52;29.30;;;13.48;;
54853;SDS011;40747;49.480;8.658;2022-12-15T13:34:22;34.30;;;15.55;;
54853;SDS011;40747;49.480;8.658;2022-12-15T13:36:51;24.65;;;13.95;;
54853;SDS011;40747;49.480;8.658;2022-12-15T13:54:50;41.58;;;19.50;;
54853;SDS011;40747;49.480;8.658;2022-12-15T13:57:20;23.65;;;12.75;;
54853;SDS011;40747;49.480;8.658;2022-12-15T13:59:47;29.85;;;12.57;;
54853;SDS011;40747;49.480;8.658;2022-12-15T14:18:32;26.02;;;11.35;;
54853;SDS011;40747;49.480;8.658;2022-12-15T14:20:59;6.65;;;6.07;;
54853;SDS011;40747;49.480;8.658;2022-12-15T14:23:37;13.77;;;7.47;;
54853;SDS011;40747;49.480;8.658;2022-12-15T14:26:05;25.67;;;11.40;;
54853;SDS011;40747;49.480;8.658;2022-12-15T14:28:34;10.55;;;6.60;;
54853;SDS011;40747;49.480;8.658;2022-12-15T14:31:05;14.52;;;9.50;;
54853;SDS011;40747;49.480;8.658;2022-12-15T14:33:35;12.45;;;7.88;;
54853;SDS011;40747;49.480;8.658;2022-12-15T14:36:07;13.70;;;7.28;;
54853;SDS011;40747;49.480;8.658;2022-12-15T14:38:40;34.35;;;17.55;;
54853;SDS011;40747;49.480;8.658;2022-12-15T14:41:07;40.85;;;16.92;;
54853;SDS011;40747;49.480;8.658;2022-12-15T14:43:41;28.55;;;14.93;;
54853;SDS011;40747;49.480;8.658;2022-12-15T14:46:13;32.95;;;15.93;;
54853;SDS011;40747;49.480;8.658;2022-12-15T14:49:16;31.40;;;15.77;;
54853;SDS011;40747;49.480;8.658;2022-12-15T14:51:40;28.20;;;13.10;;
54853;SDS011;40747;49.480;8.658;2022-12-15T14:57:11;44.75;;;19.65;;
54853;SDS011;40747;49.480;8.658;2022-12-15T14:59:39;24.38;;;11.10;;
54853;SDS011;40747;49.480;8.658;2022-12-15T15:02:16;18.50;;;7.13;;
54853;SDS011;40747;49.480;8.658;2022-12-15T15:07:32;18.02;;;12.10;;
54853;SDS011;40747;49.480;8.658;2022-12-15T15:10:02;28.13;;;14.15;;
54853;SDS011;40747;49.480;8.658;2022-12-15T15:12:44;28.70;;;14.63;;
54853;SDS011;40747;49.480;8.658;2022-12-15T15:15:18;17.50;;;10.52;;
54853;SDS011;40747;49.480;8.658;2022-12-15T15:17:49;28.55;;;12.65;;
54853;SDS011;40747;49.480;8.658;2022-12-15T15:25:51;34.83;;;15.55;;
54853;SDS011;40747;49.480;8.658;2022-12-15T15:28:22;38.70;;;18.15;;
54853;SDS011;40747;49.480;8.658;2022-12-15T15:30:57;22.08;;;12.65;;
54853;SDS011;40747;49.480;8.658;2022-12-15T15:33:29;10.10;;;7.05;;
54853;SDS011;40747;49.480;8.658;2022-12-15T15:35:55;14.35;;;6.65;;
54853;SDS011;40747;49.480;8.658;2022-12-15T15:38:27;16.23;;;9.68;;
54853;SDS011;40747;49.480;8.658;2022-12-15T15:40:59;15.45;;;8.48;;
54853;SDS011;40747;49.480;8.658;2022-12-15T15:43:27;15.98;;;8.80;;
54853;SDS011;40747;49.480;8.658;2022-12-15T15:49:02;9.00;;;6.68;;
54853;SDS011;40747;49.480;8.658;2022-12-15T15:51:31;18.02;;;9.32;;
54853;SDS011;40747;49.480;8.658;2022-12-15T15:53:58;19.08;;;10.50;;
54853;SDS011;40747;49.480;8.658;2022-12-15T15:56:26;14.57;;;7.93;;
54853;SDS011;40747;49.480;8.658;2022-12-15T15:58:54;32.40;;;14.65;;
54853;SDS011;40747;49.480;8.658;2022-12-15T16:01:20;8.77;;;7.90;;
54853;SDS011;40747;49.480;8.658;2022-12-15T16:03:45;19.95;;;8.57;;
54853;SDS011;40747;49.480;8.658;2022-12-15T16:06:17;6.38;;;4.82;;
54853;SDS011;40747;49.480;8.658;2022-12-15T16:08:49;12.48;;;7.15;;
54853;SDS011;40747;49.480;8.658;2022-12-15T16:11:17;20.60;;;11.18;;
54853;SDS011;40747;49.480;8.658;2022-12-15T16:13:42;22.65;;;10.25;;
54853;SDS011;40747;49.480;8.658;2022-12-15T16:16:18;21.10;;;9.95;;
54853;SDS011;40747;49.480;8.658;2022-12-15T16:18:46;32.42;;;14.43;;
54853;SDS011;40747;49.480;8.658;2022-12-15T16:21:12;20.92;;;12.40;;
54853;SDS011;40747;49.480;8.658;2022-12-15T16:23:39;19.20;;;10.00;;
54853;SDS011;40747;49.480;8.658;2022-12-15T16:26:07;19.60;;;10.77;;
54853;SDS011;40747;49.480;8.658;2022-12-15T16:28:38;19.55;;;9.65;;
54853;SDS011;40747;49.480;8.658;2022-12-15T16:31:04;24.40;;;12.05;;
54853;SDS011;40747;49.480;8.658;2022-12-15T16:33:32;28.13;;;14.55;;
54853;SDS011;40747;49.480;8.658;2022-12-15T16:35:57;22.88;;;13.32;;
54853;SDS011;40747;49.480;8.658;2022-12-15T16:38:26;19.88;;;10.05;;
54853;SDS011;40747;49.480;8.658;2022-12-15T16:40:53;17.33;;;10.70;;
54853;SDS011;40747;49.480;8.658;2022-12-15T16:43:21;26.38;;;11.13;;
54853;SDS011;40747;49.480;8.658;2022-12-15T16:45:48;22.42;;;14.00;;
54853;SDS011;40747;49.480;8.658;2022-12-15T16:48:15;21.73;;;10.30;;
54853;SDS011;40747;49.480;8.658;2022-12-15T16:50:43;11.90;;;7.47;;
54853;SDS011;40747;49.480;8.658;2022-12-15T16:53:24;20.25;;;11.68;;
54853;SDS011;40747;49.480;8.658;2022-12-15T16:55:55;28.30;;;14.07;;
54853;SDS011;40747;49.480;8.658;2022-12-15T16:58:22;33.25;;;14.75;;
54853;SDS011;40747;49.480;8.658;2022-12-15T17:00:49;14.82;;;8.35;;
54853;SDS011;40747;49.480;8.658;2022-12-15T17:03:16;28.17;;;13.20;;
54853;SDS011;40747;49.480;8.658;2022-12-15T17:05:43;16.45;;;6.63;;
54853;SDS011;40747;49.480;8.658;2022-12-15T17:08:16;27.98;;;12.88;;
54853;SDS011;40747;49.480;8.658;2022-12-15T17:10:45;26.50;;;11.63;;
54853;SDS011;40747;49.480;8.658;2022-12-15T17:15:55;29.50;;;13.27;;
54853;SDS011;40747;49.480;8.658;2022-12-15T17:18:20;28.00;;;12.20;;
54853;SDS011;40747;49.480;8.658;2022-12-15T17:20:46;15.77;;;8.82;;
54853;SDS011;40747;49.480;8.658;2022-12-15T17:23:13;23.95;;;10.63;;
54853;SDS011;40747;49.480;8.658;2022-12-15T17:25:41;21.35;;;11.00;;